createdAt,value
2023-04-18T00:02:45.926Z,101794.60
2023-04-18T00:07:48.859Z,101797.60
2023-04-18T00:12:51.511Z,101793.20
2023-04-18T00:17:56.526Z,101792.00
2023-04-18T00:23:00.645Z,101794.60
2023-04-18T00:28:03.194Z,101791.40
2023-04-18T00:33:06.275Z,101786.00
2023-04-18T00:38:08.981Z,101789.80
2023-04-18T00:43:14.849Z,101788.80
2023-04-18T00:48:18.116Z,101789.60
2023-04-18T00:53:20.902Z,101790.40
2023-04-18T00:58:24.773Z,101787.00
2023-04-18T01:03:27.434Z,101787.60
2023-04-18T01:08:30.398Z,101796.60
2023-04-18T01:13:33.013Z,101792.80
2023-04-18T01:18:35.547Z,101798.40
2023-04-18T01:23:38.100Z,101790.40
2023-04-18T01:28:41.990Z,101788.40
2023-04-18T01:33:44.621Z,101791.80
2023-04-18T01:38:47.140Z,101794.00
2023-04-18T01:43:49.821Z,101794.60
2023-04-18T01:48:52.953Z,101806.20
2023-04-18T01:53:55.646Z,101804.60
2023-04-18T01:58:58.215Z,101804.00
2023-04-18T02:04:00.907Z,101804.40
2023-04-18T02:09:03.777Z,101808.20
2023-04-18T02:14:06.713Z,101802.20
2023-04-18T02:19:09.463Z,101809.60
2023-04-18T02:24:12.196Z,101801.60
2023-04-18T02:29:15.129Z,101799.40
2023-04-18T02:34:17.765Z,101799.80
2023-04-18T02:39:21.024Z,101798.80
2023-04-18T02:44:23.580Z,101792.80
2023-04-18T02:49:26.201Z,101787.20
2023-04-18T02:54:28.788Z,101789.80
2023-04-18T02:59:31.439Z,101788.20
2023-04-18T03:04:34.086Z,101792.40
2023-04-18T03:09:36.801Z,101784.60
2023-04-18T03:14:39.448Z,101791.40
2023-04-18T03:19:42.033Z,101791.00
2023-04-18T03:24:44.684Z,101793.20
2023-04-18T03:29:47.342Z,101791.00
2023-04-18T03:34:51.403Z,101792.00
2023-04-18T03:39:54.600Z,101792.00
2023-04-18T03:44:57.173Z,101795.80
2023-04-18T03:49:59.766Z,101794.60
2023-04-18T03:55:02.344Z,101796.00
2023-04-18T04:00:08.101Z,101794.40
2023-04-18T04:05:10.918Z,101797.60
2023-04-18T04:10:13.780Z,101795.80
2023-04-18T04:15:16.534Z,101788.40
2023-04-18T04:20:24.104Z,101783.40
2023-04-18T04:25:28.898Z,101781.00
2023-04-18T04:30:31.872Z,101792.60
2023-04-18T04:35:36.708Z,101788.20
2023-04-18T04:40:39.249Z,101774.40
2023-04-18T04:45:43.465Z,101792.00
2023-04-18T04:50:53.801Z,101804.20
2023-04-18T04:55:57.832Z,101813.60
2023-04-18T05:01:00.652Z,101818.20
2023-04-18T05:06:03.724Z,101822.00
2023-04-18T05:11:06.306Z,101820.60
2023-04-18T05:16:09.389Z,101821.40
2023-04-18T05:21:12.088Z,101824.20
2023-04-18T05:26:14.742Z,101827.20
2023-04-18T05:31:17.482Z,101836.20
2023-04-18T05:36:20.676Z,101830.60
2023-04-18T05:41:23.270Z,101826.00
2023-04-18T05:46:25.895Z,101827.80
2023-04-18T05:51:28.673Z,101829.60
2023-04-18T05:56:31.380Z,101827.20
2023-04-18T06:01:34.502Z,101827.40
2023-04-18T06:06:37.122Z,101826.80
2023-04-18T06:11:40.044Z,101827.60
2023-04-18T06:16:42.858Z,101812.60
2023-04-18T06:21:45.773Z,101797.80
2023-04-18T06:26:48.587Z,101782.00
2023-04-18T06:31:52.215Z,101783.20
2023-04-18T06:36:55.803Z,101776.20
2023-04-18T06:41:58.681Z,101746.40
2023-04-18T06:47:01.355Z,101737.20
2023-04-18T06:52:03.988Z,101729.40
2023-04-18T06:57:06.599Z,101733.00
2023-04-18T07:02:09.229Z,101739.00
2023-04-18T07:07:11.861Z,101741.40
2023-04-18T07:12:14.487Z,101740.80
2023-04-18T07:17:18.028Z,101743.60
2023-04-18T07:22:20.666Z,101742.00
2023-04-18T07:27:23.207Z,101746.80
2023-04-18T07:32:26.004Z,101744.80
2023-04-18T07:37:28.960Z,101742.40
2023-04-18T07:42:31.618Z,101772.80
2023-04-18T07:47:34.296Z,101753.60
2023-04-18T07:52:38.207Z,101756.40
2023-04-18T07:57:50.226Z,101775.80
2023-04-18T08:02:52.922Z,101759.20
2023-04-18T08:07:55.679Z,101762.60
2023-04-18T08:12:58.413Z,101760.00
2023-04-18T08:18:01.621Z,101774.00
2023-04-18T08:23:08.424Z,101785.60
2023-04-18T08:28:13.430Z,101780.60
2023-04-18T08:33:16.220Z,101774.40
2023-04-18T08:38:19.263Z,101807.60
2023-04-18T08:43:22.007Z,101798.40
2023-04-18T08:48:24.861Z,101798.80
2023-04-18T08:53:27.567Z,101770.40
2023-04-18T08:58:32.496Z,101767.80
2023-04-18T09:03:43.179Z,101770.00
2023-04-18T09:08:58.992Z,101785.20
2023-04-18T09:14:02.423Z,101764.20
2023-04-18T09:19:11.168Z,101776.20
2023-04-18T09:24:26.353Z,101761.80
2023-04-18T09:29:49.205Z,101765.00
2023-04-18T09:34:58.298Z,101759.60
2023-04-18T09:40:15.670Z,101755.40
2023-04-18T09:45:18.834Z,101755.80
2023-04-18T09:50:21.466Z,101763.80
2023-04-18T09:55:24.248Z,101759.80
2023-04-18T10:00:30.792Z,101753.40
2023-04-18T10:05:41.245Z,101759.20
2023-04-18T10:10:43.930Z,101765.80
2023-04-18T10:15:47.324Z,101755.00
2023-04-18T10:20:49.957Z,101746.60
2023-04-18T10:25:52.783Z,101740.20
2023-04-18T10:31:04.973Z,101727.80
2023-04-18T10:36:11.577Z,101747.20
2023-04-18T10:41:23.624Z,101742.00
2023-04-18T10:46:32.281Z,101752.40
2023-04-18T10:51:35.568Z,101754.80
2023-04-18T10:56:39.468Z,101749.20
2023-04-18T11:01:47.296Z,101751.20
2023-04-18T11:06:53.133Z,101762.80
2023-04-18T11:12:10.654Z,101762.60
2023-04-18T11:17:19.662Z,101740.80
2023-04-18T11:22:22.315Z,101738.80
2023-04-18T11:27:26.893Z,101719.40
2023-04-18T11:32:29.717Z,101715.40
2023-04-18T11:37:32.727Z,101717.80
2023-04-18T11:42:37.366Z,101706.00
2023-04-18T11:47:42.895Z,101702.80
2023-04-18T11:52:51.313Z,101705.80
2023-04-18T11:57:59.833Z,101711.00
2023-04-18T12:03:05.988Z,101703.40
2023-04-18T12:08:18.649Z,101692.00
2023-04-18T12:13:31.059Z,101695.40
2023-04-18T12:18:33.713Z,101690.40
2023-04-18T12:23:40.299Z,101688.60
2023-04-18T12:28:46.220Z,101689.60
2023-04-18T12:33:50.467Z,101682.60
2023-04-18T12:38:53.103Z,101684.20
2023-04-18T12:43:55.803Z,101680.00
2023-04-18T12:48:58.553Z,101680.40
2023-04-18T12:54:01.698Z,101679.80
2023-04-18T12:59:04.375Z,101676.00
2023-04-18T13:04:12.683Z,101662.80
2023-04-18T13:09:16.693Z,101646.20
2023-04-18T13:14:19.288Z,101650.60
2023-04-18T13:19:24.070Z,101655.60
2023-04-18T13:24:27.684Z,101649.60
2023-04-18T13:29:30.656Z,101650.80
2023-04-18T13:34:44.683Z,101653.80
2023-04-18T13:39:47.568Z,101647.60
2023-04-18T13:44:50.396Z,101653.40
2023-04-18T13:50:12.937Z,101653.00
2023-04-18T13:55:16.201Z,101661.60
2023-04-18T14:00:20.134Z,101653.60
2023-04-18T14:05:22.796Z,101657.20
2023-04-18T14:10:25.858Z,101655.60
2023-04-18T14:15:28.609Z,101653.00
2023-04-18T14:20:34.572Z,101647.60
2023-04-18T14:25:37.823Z,101641.40
2023-04-18T14:30:40.728Z,101641.00
2023-04-18T14:35:43.882Z,101650.00
2023-04-18T14:40:46.871Z,101656.40
2023-04-18T14:45:49.838Z,101662.40
2023-04-18T14:51:02.383Z,101655.80
2023-04-18T14:56:05.520Z,101657.80
2023-04-18T15:01:08.098Z,101659.40
2023-04-18T15:06:11.075Z,101660.40
2023-04-18T15:11:13.769Z,101655.80
2023-04-18T15:16:16.725Z,101654.40
2023-04-18T15:21:19.425Z,101660.20
2023-04-18T15:26:22.124Z,101662.00
2023-04-18T15:31:24.964Z,101667.00
2023-04-18T15:36:28.803Z,101668.80
2023-04-18T15:41:36.632Z,101667.40
2023-04-18T15:46:39.455Z,101660.20
2023-04-18T15:51:42.298Z,101659.40
2023-04-18T15:56:45.088Z,101658.40
2023-04-18T16:01:47.786Z,101660.00
2023-04-18T16:06:50.490Z,101656.60
2023-04-18T16:11:53.671Z,101651.80
2023-04-18T16:16:57.675Z,101650.00
2023-04-18T16:22:00.269Z,101648.40
2023-04-18T16:27:02.958Z,101642.40
2023-04-18T16:32:06.641Z,101638.40
2023-04-18T16:37:09.277Z,101632.40
2023-04-18T16:42:14.028Z,101639.40
2023-04-18T16:47:18.592Z,101628.80
2023-04-18T16:52:22.254Z,101630.20
2023-04-18T16:57:24.855Z,101632.40
2023-04-18T17:02:28.438Z,101636.40
2023-04-18T17:07:31.178Z,101637.20
2023-04-18T17:12:33.807Z,101630.80
2023-04-18T17:17:36.493Z,101636.60
2023-04-18T17:22:40.141Z,101636.40
2023-04-18T17:27:43.153Z,101636.00
2023-04-18T17:32:45.974Z,101635.80
2023-04-18T17:37:52.841Z,101642.40
2023-04-18T17:42:55.605Z,101638.20
2023-04-18T17:47:59.447Z,101645.80
2023-04-18T17:53:03.027Z,101654.80
2023-04-18T17:58:05.972Z,101662.80
2023-04-18T18:03:13.610Z,101663.20
2023-04-18T18:08:17.269Z,101661.00
2023-04-18T18:13:19.943Z,101671.80
2023-04-18T18:18:23.871Z,101662.40
2023-04-18T18:23:27.235Z,101667.60
2023-04-18T18:28:29.814Z,101663.40
2023-04-18T18:33:32.771Z,101664.00
2023-04-18T18:38:36.389Z,101659.60
2023-04-18T18:43:39.203Z,101655.60
2023-04-18T18:48:42.041Z,101655.40
2023-04-18T18:53:46.607Z,101654.40
2023-04-18T18:58:49.655Z,101654.60
2023-04-18T19:03:52.576Z,101648.40
2023-04-18T19:08:55.494Z,101650.40
2023-04-18T19:13:58.060Z,101644.80
2023-04-18T19:19:00.964Z,101638.40
2023-04-18T19:24:03.815Z,101635.60
2023-04-18T19:29:07.823Z,101628.20
2023-04-18T19:34:10.903Z,101630.20
2023-04-18T19:39:14.041Z,101629.80
2023-04-18T19:44:16.905Z,101621.40
2023-04-18T19:49:19.507Z,101615.20
2023-04-18T19:54:22.265Z,101617.20
2023-04-18T19:59:24.871Z,101606.00
2023-04-18T20:04:27.586Z,101603.60
2023-04-18T20:09:30.623Z,101591.20
2023-04-18T20:14:33.250Z,101591.40
2023-04-18T20:19:36.387Z,101595.00
2023-04-18T20:24:39.401Z,101588.80
2023-04-18T20:29:42.200Z,101584.00
2023-04-18T20:34:46.711Z,101587.60
2023-04-18T20:39:49.307Z,101580.40
2023-04-18T20:44:54.693Z,101583.60
2023-04-18T20:49:57.317Z,101577.80
2023-04-18T20:54:59.925Z,101577.60
2023-04-18T21:00:02.999Z,101568.40
2023-04-18T21:05:06.195Z,101569.60
2023-04-18T21:10:09.647Z,101564.60
2023-04-18T21:15:12.782Z,101566.60
2023-04-18T21:20:15.962Z,101562.80
2023-04-18T21:25:20.446Z,101559.20
2023-04-18T21:30:23.308Z,101560.20
2023-04-18T21:35:25.949Z,101557.60
2023-04-18T21:40:30.610Z,101555.20
2023-04-18T21:45:33.774Z,101552.80
2023-04-18T21:50:36.330Z,101546.40
2023-04-18T21:55:38.876Z,101545.00
2023-04-18T22:00:41.486Z,101539.20
2023-04-18T22:05:44.261Z,101541.60
2023-04-18T22:10:50.469Z,101531.40
2023-04-18T22:15:53.089Z,101528.00
2023-04-18T22:20:56.420Z,101526.60
2023-04-18T22:25:59.081Z,101519.80
2023-04-18T22:31:01.723Z,101522.00
2023-04-18T22:36:05.306Z,101509.20
2023-04-18T22:41:07.909Z,101503.80
2023-04-18T22:46:10.851Z,101499.60
2023-04-18T22:51:18.208Z,101503.60
2023-04-18T22:56:21.062Z,101496.00
2023-04-18T23:01:23.609Z,101488.80
2023-04-18T23:06:27.994Z,101483.20
2023-04-18T23:11:30.809Z,101478.00
2023-04-18T23:16:33.480Z,101474.20
2023-04-18T23:21:36.050Z,101472.40
2023-04-18T23:26:38.988Z,101462.40
2023-04-18T23:31:41.793Z,101454.80
2023-04-18T23:36:44.475Z,101446.40
2023-04-18T23:41:47.130Z,101432.40
2023-04-18T23:46:49.808Z,101435.60
2023-04-18T23:51:52.509Z,101427.40
2023-04-18T23:56:55.054Z,101416.20
